Time;durP1;ratioP1;P1;durP2;ratioP2;P2;SDS_P1;SDS_P2;PMS_P1;PMS_P2;Temp;Humidity;BMP_temperature;BMP_pressure;BME280_temperature;BME280_humidity;BME280_pressure;Samples;Min_cycle;Max_cycle;Signal;HPM_P1;HPM_P2
2022/08/13 00:00:36;;;;;;;7.77;5.00;;;;;;;21.22;100.00;100993.84;2073537;28;20189;-65
2022/08/13 00:01:40;;;;;;;8.07;4.60;;;;;;;20.20;100.00;100838.78;2072957;28;20189;-65
2022/08/13 00:02:43;;;;;;;6.53;4.60;;;;;;;21.19;100.00;100991.25;2072113;28;20413;-66
2022/08/13 00:03:44;;;;;;;7.70;4.63;;;;;;;21.33;100.00;101007.31;2065792;28;20926;-66
2022/08/13 00:04:56;;;;;;;9.60;4.43;;;;;;;20.88;100.00;100923.53;2073805;28;20801;-65
2022/08/13 00:05:57;;;;;;;7.40;4.60;;;;;;;21.44;100.00;101011.00;2064871;28;20564;-65
2022/08/13 00:08:05;;;;;;;8.80;4.33;;;;;;;21.08;100.00;100938.38;2058319;28;20660;-65
2022/08/13 00:09:11;;;;;;;8.23;4.77;;;;;;;21.44;100.00;101005.34;2065676;28;20835;-66
2022/08/13 00:10:20;;;;;;;6.30;4.90;;;;;;;21.32;100.00;100986.78;2065712;28;20256;-65
2022/08/13 00:13:00;;;;;;;6.10;4.70;;;;;;;21.52;100.00;101006.47;2059821;28;20457;-66
2022/08/13 00:14:04;;;;;;;7.33;4.80;;;;;;;21.53;100.00;100998.75;2066096;28;20412;-65
2022/08/13 00:15:16;;;;;;;7.60;4.67;;;;;;;21.32;100.00;100971.91;2073414;28;20428;-66
2022/08/13 00:16:16;;;;;;;7.03;4.57;;;;;;;21.49;100.00;100998.25;2069629;28;20424;-65
2022/08/13 00:17:18;;;;;;;9.13;4.53;;;;;;;21.46;100.00;100999.22;2065738;28;20433;-65
2022/08/13 00:18:22;;;;;;;8.40;4.40;;;;;;;21.49;100.00;100993.34;2073087;28;20182;-65
2022/08/13 00:19:26;;;;;;;10.50;4.77;;;;;;;21.45;100.00;100992.03;2057928;28;20545;-65
2022/08/13 00:20:32;;;;;;;7.13;4.60;;;;;;;21.49;100.00;100996.16;2071399;28;20454;-65
2022/08/13 00:21:33;;;;;;;10.43;4.77;;;;;;;21.35;100.00;100973.75;2080089;28;20447;-66
2022/08/13 00:22:34;;;;;;;6.87;4.23;;;;;;;20.99;100.00;100923.69;2059796;28;20490;-66
2022/08/13 00:23:34;;;;;;;6.63;4.57;;;;;;;21.46;100.00;100990.75;2056816;28;20191;-65
2022/08/13 00:24:38;;;;;;;7.93;4.90;;;;;;;21.19;100.00;100949.75;2057349;28;20175;-65
2022/08/13 00:25:39;;;;;;;6.03;4.40;;;;;;;21.30;100.00;100960.38;2066555;28;20186;-65
2022/08/13 00:26:39;;;;;;;6.30;4.40;;;;;;;21.49;100.00;100979.25;2063628;28;20429;-65
2022/08/13 00:27:47;;;;;;;7.53;4.53;;;;;;;21.49;100.00;100986.97;2056927;28;20662;-65
2022/08/13 00:28:49;;;;;;;11.77;5.03;;;;;;;21.26;100.00;100959.81;2056769;28;20179;-65
2022/08/13 00:29:54;;;;;;;7.93;4.97;;;;;;;21.53;100.00;100984.66;2064380;28;20445;-65
2022/08/13 00:30:54;;;;;;;10.47;4.80;;;;;;;21.19;100.00;100937.72;2072512;28;20499;-64
2022/08/13 00:31:55;;;;;;;7.00;4.87;;;;;;;21.49;100.00;100975.69;2067399;28;20511;-65
2022/08/13 00:32:57;;;;;;;9.70;4.77;;;;;;;21.58;100.00;100981.91;2069695;28;20269;-65
2022/08/13 00:33:59;;;;;;;10.50;4.87;;;;;;;21.58;100.00;100979.09;2064728;28;20194;-65
2022/08/13 00:35:01;;;;;;;9.53;5.17;;;;;;;21.10;100.00;100906.88;2064271;28;20888;-65
2022/08/13 00:36:02;;;;;;;10.17;4.87;;;;;;;21.61;100.00;100968.84;2071134;28;20436;-64
2022/08/13 00:37:02;;;;;;;8.10;4.53;;;;;;;21.65;100.00;100984.25;2065983;28;20429;-66
2022/08/13 00:38:07;;;;;;;7.20;4.63;;;;;;;21.67;100.00;100983.78;2073691;28;20560;-65
2022/08/13 00:39:09;;;;;;;8.97;4.80;;;;;;;21.65;100.00;100978.63;2073790;28;20200;-65
2022/08/13 00:40:11;;;;;;;7.93;4.57;;;;;;;21.66;100.00;100982.22;2073447;28;20459;-65
2022/08/13 00:42:31;;;;;;;8.50;4.77;;;;;;;21.47;100.00;100952.81;2065539;28;20472;-65
2022/08/13 00:43:33;;;;;;;10.43;4.53;;;;;;;21.59;100.00;100979.88;2065100;28;20430;-66
2022/08/13 00:44:34;;;;;;;9.30;4.57;;;;;;;21.63;100.00;100977.56;2065445;28;20197;-65
2022/08/13 00:45:35;;;;;;;7.10;4.70;;;;;;;21.26;100.00;100932.41;2064989;28;20523;-65
2022/08/13 00:46:37;;;;;;;6.87;4.63;;;;;;;21.46;100.00;100982.31;2065007;28;20210;-65
2022/08/13 00:48:56;;;;;;;10.50;4.70;;;;;;;21.13;100.00;100965.81;2069853;28;20451;-65
2022/08/13 00:49:58;;;;;;;10.63;5.13;;;;;;;20.79;100.00;100923.69;2070229;28;20461;-65
2022/08/13 00:50:59;;;;;;;8.23;4.27;;;;;;;21.28;100.00;100994.69;2065152;28;20229;-65
2022/08/13 00:52:01;;;;;;;7.93;3.83;;;;;;;21.34;100.00;101000.38;2068265;28;21213;-65
2022/08/13 00:53:02;;;;;;;8.33;4.40;;;;;;;21.40;100.00;101001.22;2064056;28;20437;-65
2022/08/13 00:54:09;;;;;;;6.77;3.80;;;;;;;21.46;100.00;100988.72;2056571;28;20422;-65
2022/08/13 00:55:17;;;;;;;4.23;2.90;;;;;;;21.56;100.00;100984.47;2056156;28;20517;-65
2022/08/13 00:56:19;;;;;;;6.03;4.07;;;;;;;21.51;100.00;100979.53;2057456;28;20422;-65
2022/08/13 00:57:19;;;;;;;6.40;3.80;;;;;;;21.58;100.00;100984.72;2072660;28;20439;-65
2022/08/13 00:58:21;;;;;;;7.17;4.07;;;;;;;21.53;100.00;100982.63;2073300;28;20523;-65
2022/08/13 00:59:22;;;;;;;4.83;3.20;;;;;;;21.22;100.00;100920.56;2073224;28;20224;-65
2022/08/13 01:00:24;;;;;;;3.97;3.10;;;;;;;21.41;100.00;100935.09;2068867;28;20453;-65
2022/08/13 01:01:26;;;;;;;4.80;3.20;;;;;;;21.68;100.00;100974.84;2068468;28;20193;-64
2022/08/13 01:02:26;;;;;;;6.00;3.60;;;;;;;21.67;100.00;100962.00;2071091;28;20928;-65
2022/08/13 01:03:30;;;;;;;4.50;3.30;;;;;;;21.82;100.00;100973.94;2065047;28;20841;-65
2022/08/13 01:04:32;;;;;;;5.33;3.17;;;;;;;21.85;100.00;100977.81;2070863;28;20185;-65
2022/08/13 01:05:34;;;;;;;5.70;3.27;;;;;;;21.45;100.00;100935.66;2064842;28;20422;-65
2022/08/13 01:06:35;;;;;;;6.40;3.10;;;;;;;21.38;100.00;100917.13;2064796;28;20511;-65
2022/08/13 01:07:40;;;;;;;4.57;3.27;;;;;;;21.31;100.00;100903.50;2065140;28;20451;-65
2022/08/13 01:08:40;;;;;;;4.17;3.17;;;;;;;21.40;100.00;100917.38;2064810;28;20449;-65
2022/08/13 01:09:41;;;;;;;4.57;3.60;;;;;;;21.88;100.00;100973.97;2070406;28;20492;-65
2022/08/13 01:10:44;;;;;;;7.07;3.37;;;;;;;21.74;100.00;100977.72;2073203;28;20410;-65
2022/08/13 01:11:46;;;;;;;6.30;3.57;;;;;;;21.96;100.00;100980.72;2069751;28;20216;-65
2022/08/13 01:12:52;;;;;;;4.27;3.03;;;;;;;21.92;100.00;100985.81;2065005;28;20420;-65
2022/08/13 01:13:53;;;;;;;5.63;3.47;;;;;;;21.34;100.00;100893.25;2067064;28;20843;-66
2022/08/13 01:14:57;;;;;;;5.57;3.53;;;;;;;21.97;100.00;100974.56;2072279;28;20178;-65
2022/08/13 01:15:58;;;;;;;5.47;2.83;;;;;;;21.90;100.00;100963.72;2072543;28;20197;-65
2022/08/13 01:17:04;;;;;;;4.97;3.00;;;;;;;21.63;100.00;100930.41;2073369;28;20420;-64
2022/08/13 01:18:05;;;;;;;3.73;3.27;;;;;;;21.96;100.00;100997.63;2065274;28;20520;-65
2022/08/13 01:19:09;;;;;;;3.87;3.10;;;;;;;21.48;100.00;100918.50;2072176;28;20436;-65
2022/08/13 01:20:14;;;;;;;3.90;3.00;;;;;;;21.99;100.00;100986.13;2073342;28;20190;-64
2022/08/13 01:21:19;;;;;;;3.13;2.70;;;;;;;21.99;100.00;100982.50;2066972;28;20430;-65
2022/08/13 01:22:25;;;;;;;3.93;2.90;;;;;;;22.07;100.00;100986.44;2065111;28;20441;-66
2022/08/13 01:23:28;;;;;;;5.97;3.17;;;;;;;22.06;100.00;100982.81;2065303;28;20460;-64
2022/08/13 01:24:29;;;;;;;4.20;3.27;;;;;;;22.13;100.00;100981.59;2069289;28;20448;-65
2022/08/13 01:25:31;;;;;;;3.87;3.13;;;;;;;22.09;100.00;100969.75;2068742;28;20960;-65
2022/08/13 01:26:32;;;;;;;4.90;2.97;;;;;;;21.78;100.00;100913.38;2066810;28;20418;-66
2022/08/13 01:27:37;;;;;;;6.17;3.40;;;;;;;21.80;100.00;100910.84;2071458;28;20875;-65
2022/08/13 01:28:40;;;;;;;6.87;3.37;;;;;;;22.32;100.00;100977.84;2068571;28;20443;-65
2022/08/13 01:29:41;;;;;;;4.83;2.87;;;;;;;21.67;100.00;100868.91;2065124;28;20931;-65
2022/08/13 01:30:46;;;;;;;4.73;3.30;;;;;;;22.07;100.00;100944.09;2065101;28;20487;-65
2022/08/13 01:31:48;;;;;;;6.00;3.20;;;;;;;22.38;100.00;100986.38;2064820;28;20197;-65
2022/08/13 01:32:48;;;;;;;6.10;3.60;;;;;;;22.41;100.00;100988.19;2071734;28;20428;-65
2022/08/13 01:33:59;;;;;;;5.30;3.17;;;;;;;22.43;100.00;100989.22;2072576;28;20484;-65
2022/08/13 01:35:00;;;;;;;3.70;2.83;;;;;;;22.32;100.00;100968.63;2066599;28;20186;-65
2022/08/13 01:36:06;;;;;;;3.90;3.30;;;;;;;22.36;100.00;100980.47;2068653;28;20446;-65
2022/08/13 01:37:07;;;;;;;4.30;3.10;;;;;;;21.94;100.00;100919.13;2068293;28;20236;-65
2022/08/13 01:38:08;;;;;;;5.43;3.50;;;;;;;22.28;100.00;100980.16;2064859;28;20445;-66
2022/08/13 01:39:10;;;;;;;4.07;3.20;;;;;;;22.08;100.00;100948.44;2055965;28;20183;-65
2022/08/13 01:40:11;;;;;;;8.00;3.60;;;;;;;22.22;100.00;100987.03;2056226;28;20422;-65
2022/08/13 01:41:12;;;;;;;3.93;3.40;;;;;;;21.70;100.00;100904.59;2072324;28;20186;-65
2022/08/13 01:42:22;;;;;;;6.07;3.43;;;;;;;21.99;100.00;100960.72;2080717;28;20220;-65
2022/08/13 01:43:28;;;;;;;4.90;3.50;;;;;;;21.82;100.00;100928.00;2064907;28;20160;-65
2022/08/13 01:44:32;;;;;;;4.67;3.40;;;;;;;22.09;100.00;100976.19;2065168;28;20429;-65
2022/08/13 01:45:33;;;;;;;5.10;3.27;;;;;;;22.14;100.00;100969.00;2064137;28;20441;-65
2022/08/13 01:50:35;;;;;;;7.43;3.87;;;;;;;22.12;100.00;100974.41;2064748;28;20170;-65
2022/08/13 01:51:37;;;;;;;4.30;3.30;;;;;;;21.74;100.00;100921.31;2064755;28;20422;-65
2022/08/13 01:52:41;;;;;;;7.70;3.90;;;;;;;22.05;100.00;100975.63;2072339;28;20455;-64
2022/08/13 01:53:46;;;;;;;5.33;3.70;;;;;;;21.80;100.00;100941.88;2065019;28;20468;-65
2022/08/13 01:54:47;;;;;;;5.00;3.60;;;;;;;22.01;100.00;100975.09;2065054;28;20790;-65
2022/08/13 01:55:52;;;;;;;5.90;3.53;;;;;;;22.00;100.00;100970.72;2071147;28;20444;-65
2022/08/13 01:56:53;;;;;;;7.23;4.00;;;;;;;22.03;100.00;100964.09;2072313;28;20192;-65
2022/08/13 01:57:54;;;;;;;7.73;3.70;;;;;;;22.06;100.00;100974.34;2080364;28;20448;-65
2022/08/13 01:58:58;;;;;;;8.07;4.27;;;;;;;21.79;100.00;100926.19;2075868;28;20495;-65
2022/08/13 02:00:00;;;;;;;5.43;3.80;;;;;;;21.52;100.00;100896.50;2064652;28;20194;-65
2022/08/13 02:01:03;;;;;;;4.67;3.73;;;;;;;22.03;100.00;100966.91;2064634;28;20627;-65
2022/08/13 02:02:05;;;;;;;6.67;3.83;;;;;;;22.01;100.00;100971.50;2058071;28;20539;-65
2022/08/13 02:03:09;;;;;;;8.10;3.90;;;;;;;21.97;100.00;100966.09;2062847;28;20434;-65
2022/08/13 02:04:13;;;;;;;4.87;3.73;;;;;;;21.94;100.00;100967.09;2059666;28;20959;-65
2022/08/13 02:05:14;;;;;;;7.17;3.67;;;;;;;21.25;100.00;100865.25;2063988;28;20187;-65
2022/08/13 02:06:21;;;;;;;8.37;4.40;;;;;;;21.86;100.00;100962.41;2064514;28;20924;-65
2022/08/13 02:07:22;;;;;;;7.80;4.20;;;;;;;21.45;100.00;100896.94;2064294;28;20452;-65
2022/08/13 02:08:24;;;;;;;10.00;4.60;;;;;;;21.65;100.00;100944.03;2072157;28;20474;-65
2022/08/13 02:09:25;;;;;;;9.97;4.30;;;;;;;21.70;100.00;100954.59;2071912;28;20277;-65
2022/08/13 02:10:26;;;;;;;7.60;4.13;;;;;;;21.68;100.00;100962.75;2064380;28;20445;-65
2022/08/13 02:11:28;;;;;;;10.70;4.13;;;;;;;21.63;100.00;100964.25;2055775;28;21002;-65
2022/08/13 02:12:28;;;;;;;6.63;4.07;;;;;;;21.46;100.00;100946.44;2056120;28;20202;-65
2022/08/13 02:13:29;;;;;;;9.37;4.43;;;;;;;21.51;100.00;100950.56;2064542;28;20556;-65
2022/08/13 02:14:33;;;;;;;7.03;3.53;;;;;;;21.61;100.00;100964.00;2065284;28;20174;-65
2022/08/13 02:15:33;;;;;;;6.80;4.00;;;;;;;21.03;100.00;100884.78;2063682;28;20823;-65
2022/08/13 02:16:36;;;;;;;5.23;3.80;;;;;;;21.62;100.00;100956.28;2063702;28;20506;-64
2022/08/13 02:17:40;;;;;;;8.30;4.00;;;;;;;21.56;100.00;100961.91;2072317;28;20193;-65
2022/08/13 02:18:41;;;;;;;6.80;4.03;;;;;;;21.32;100.00;100923.97;2063993;28;20422;-65
2022/08/13 02:19:43;;;;;;;6.33;4.50;;;;;;;21.23;100.00;100913.66;2058533;28;20456;-65
2022/08/13 02:20:51;;;;;;;8.03;4.33;;;;;;;21.62;100.00;100973.22;2064723;28;20269;-65
2022/08/13 02:21:51;;;;;;;5.70;4.37;;;;;;;21.56;100.00;100970.38;2064641;28;20445;-64
2022/08/13 02:22:52;;;;;;;5.37;4.13;;;;;;;21.09;100.00;100906.09;2067877;28;20444;-65
2022/08/13 02:23:56;;;;;;;5.93;4.33;;;;;;;21.53;100.00;100973.38;2070455;28;20186;-65
2022/08/13 02:24:59;;;;;;;10.13;4.63;;;;;;;21.50;100.00;100977.22;2065593;28;20281;-65
2022/08/13 02:26:05;;;;;;;8.03;5.30;;;;;;;21.49;100.00;100984.13;2071177;28;20470;-65
2022/08/13 02:27:06;;;;;;;9.27;5.80;;;;;;;21.43;100.00;100969.97;2064607;28;20705;-65
2022/08/13 02:28:07;;;;;;;9.83;6.20;;;;;;;21.19;100.00;100926.44;2067511;28;20934;-65
2022/08/13 02:29:08;;;;;;;10.77;6.03;;;;;;;21.42;100.00;100981.75;2080268;28;20184;-65
2022/08/13 02:30:11;;;;;;;8.77;6.30;;;;;;;21.48;100.00;100971.28;2067836;28;20679;-65
2022/08/13 02:31:12;;;;;;;11.30;6.60;;;;;;;21.47;100.00;100970.53;2064658;28;20488;-65
2022/08/13 02:32:13;;;;;;;8.83;6.63;;;;;;;21.47;100.00;100975.38;2064433;28;20440;-65
2022/08/13 02:33:16;;;;;;;8.57;6.47;;;;;;;21.42;100.00;100982.53;2055796;28;20454;-65
2022/08/13 02:34:18;;;;;;;10.13;6.00;;;;;;;21.39;100.00;100983.50;2058774;28;20453;-65
2022/08/13 02:35:19;;;;;;;9.13;6.20;;;;;;;21.35;100.00;100982.94;2070216;28;20788;-65
2022/08/13 02:36:22;;;;;;;11.30;6.33;;;;;;;21.35;100.00;100982.19;2064127;28;20422;-65
2022/08/13 02:37:22;;;;;;;10.27;5.80;;;;;;;21.37;100.00;100988.09;2064113;28;20473;-65
2022/08/13 02:38:23;;;;;;;12.77;6.00;;;;;;;21.22;100.00;100962.84;2064301;28;20493;-65
2022/08/13 02:39:24;;;;;;;9.43;5.80;;;;;;;21.29;100.00;100987.00;2062705;28;20244;-65
2022/08/13 02:41:43;;;;;;;8.90;5.17;;;;;;;21.21;100.00;100975.41;2072934;28;20189;-65
2022/08/13 02:42:43;;;;;;;6.90;5.67;;;;;;;21.25;100.00;100986.44;2066174;28;20442;-65
2022/08/13 02:43:46;;;;;;;8.60;6.00;;;;;;;20.91;100.00;100931.78;2069660;28;20632;-65
2022/08/13 02:44:49;;;;;;;7.20;5.27;;;;;;;20.51;100.00;100872.69;2068356;28;20194;-65
2022/08/13 02:45:50;;;;;;;6.87;5.40;;;;;;;21.23;100.00;100989.75;2055141;28;20851;-65
2022/08/13 02:46:51;;;;;;;6.93;5.17;;;;;;;20.63;100.00;100888.41;2055795;28;20427;-65
2022/08/13 02:47:53;;;;;;;7.33;4.70;;;;;;;21.26;100.00;100991.59;2065781;28;20564;-65
2022/08/13 02:48:59;;;;;;;6.90;4.93;;;;;;;21.04;100.00;100945.50;2062758;28;20186;-65
2022/08/13 02:49:59;;;;;;;9.77;5.47;;;;;;;20.86;100.00;100918.38;2056451;28;20417;-64
2022/08/13 02:51:00;;;;;;;6.70;4.90;;;;;;;21.31;100.00;100990.09;2064670;28;20946;-64
2022/08/13 02:52:01;;;;;;;7.00;5.40;;;;;;;21.33;100.00;100987.56;2067147;28;20588;-65
2022/08/13 02:53:01;;;;;;;7.97;5.17;;;;;;;20.84;100.00;100912.50;2063664;28;20257;-65
2022/08/13 02:54:02;;;;;;;7.30;4.87;;;;;;;21.30;100.00;100980.88;2058891;28;20214;-65
2022/08/13 02:55:04;;;;;;;7.63;5.13;;;;;;;20.93;100.00;100932.06;2063940;28;20190;-65
2022/08/13 02:56:08;;;;;;;5.87;5.23;;;;;;;21.34;100.00;100991.94;2064121;28;20672;-65
2022/08/13 02:57:12;;;;;;;8.47;5.33;;;;;;;20.90;100.00;100916.16;2066788;28;20793;-65
2022/08/13 02:58:12;;;;;;;7.43;5.33;;;;;;;20.69;100.00;100877.22;2070880;28;20427;-65
2022/08/13 02:59:13;;;;;;;9.43;5.47;;;;;;;21.32;100.00;100980.38;2064372;28;20421;-65
2022/08/13 03:00:15;;;;;;;9.83;5.33;;;;;;;21.29;100.00;100984.94;2064001;28;20286;-65
2022/08/13 03:01:16;;;;;;;8.83;4.97;;;;;;;21.31;100.00;100987.28;2056082;28;20183;-65
2022/08/13 03:02:17;;;;;;;7.30;5.20;;;;;;;21.31;100.00;100990.88;2070225;28;20451;-65
2022/08/13 03:03:19;;;;;;;7.37;5.00;;;;;;;21.28;100.00;100991.09;2077413;28;20181;-65
2022/08/13 03:04:19;;;;;;;5.90;4.47;;;;;;;20.59;100.00;100890.69;2067918;28;20475;-65
2022/08/13 03:05:20;;;;;;;8.20;5.03;;;;;;;21.26;100.00;100993.63;2067459;28;20435;-65
2022/08/13 03:06:21;;;;;;;7.00;5.00;;;;;;;21.08;100.00;100974.25;2069753;28;20534;-65
2022/08/13 03:07:21;;;;;;;9.70;4.97;;;;;;;21.13;100.00;100982.75;2055761;28;20723;-65
2022/08/13 03:08:22;;;;;;;9.73;5.60;;;;;;;21.21;100.00;100997.16;2055890;28;20880;-65
2022/08/13 03:09:23;;;;;;;11.97;5.63;;;;;;;21.23;100.00;100992.59;2055818;28;20217;-65
2022/08/13 03:10:27;;;;;;;9.17;5.47;;;;;;;21.19;100.00;100994.84;2062570;28;20179;-65
2022/08/13 03:11:29;;;;;;;10.00;4.73;;;;;;;21.17;100.00;101002.25;2063636;28;20448;-65
2022/08/13 03:12:32;;;;;;;15.97;5.60;;;;;;;20.88;100.00;100958.09;2058229;28;20948;-65
2022/08/13 03:13:36;;;;;;;29.60;6.27;;;;;;;21.14;100.00;100994.78;2069482;28;20514;-65
2022/08/13 03:14:38;;;;;;;20.57;6.00;;;;;;;20.82;100.00;100953.69;2072703;28;20499;-65
2022/08/13 03:15:39;;;;;;;16.10;5.40;;;;;;;21.06;100.00;100993.66;2071997;28;20451;-65
2022/08/13 03:16:40;;;;;;;8.30;5.00;;;;;;;21.03;100.00;100997.50;2071939;28;20910;-64
2022/08/13 03:17:41;;;;;;;9.03;4.80;;;;;;;21.07;100.00;100996.00;2071131;28;20569;-65
2022/08/13 03:18:42;;;;;;;5.57;4.40;;;;;;;20.37;100.00;100878.41;2055628;28;20430;-65
2022/08/13 03:19:43;;;;;;;8.00;4.47;;;;;;;20.42;100.00;100895.34;2055705;28;20442;-65
2022/08/13 03:20:43;;;;;;;8.90;4.50;;;;;;;21.17;100.00;100993.78;2071399;28;20189;-65
2022/08/13 03:21:44;;;;;;;7.93;4.30;;;;;;;20.85;100.00;100935.78;2066197;28;20280;-65
2022/08/13 03:22:53;;;;;;;10.57;5.80;;;;;;;21.17;100.00;100993.78;2064541;28;20218;-65
2022/08/13 03:23:54;;;;;;;11.03;5.70;;;;;;;20.83;100.00;100946.78;2065867;28;20186;-65
2022/08/13 03:24:54;;;;;;;12.33;5.30;;;;;;;21.22;100.00;100993.06;2065549;28;20441;-65
2022/08/13 03:25:55;;;;;;;9.83;5.13;;;;;;;21.26;100.00;100994.41;2068444;28;20596;-65
2022/08/13 03:26:57;;;;;;;8.30;4.90;;;;;;;21.33;100.00;101004.47;2072067;28;20691;-65
2022/08/13 03:27:58;;;;;;;8.93;5.00;;;;;;;21.04;100.00;100959.59;2059377;28;20575;-65
2022/08/13 03:29:00;;;;;;;9.57;5.10;;;;;;;21.39;100.00;100997.63;2065493;28;20417;-65
2022/08/13 03:30:00;;;;;;;14.50;5.10;;;;;;;21.07;100.00;100950.13;2066239;28;20178;-65
2022/08/13 03:31:01;;;;;;;10.90;5.10;;;;;;;21.02;100.00;100943.16;2056732;28;20446;-65
2022/08/13 03:32:03;;;;;;;9.43;4.87;;;;;;;20.81;100.00;100898.59;2055137;28;20288;-65
2022/08/13 03:33:09;;;;;;;11.23;4.60;;;;;;;21.59;100.00;100999.63;2065334;28;20425;-65
2022/08/13 03:34:10;;;;;;;12.70;5.00;;;;;;;21.63;100.00;101005.78;2073030;28;20538;-65
2022/08/13 03:35:14;;;;;;;8.90;5.07;;;;;;;21.61;100.00;101005.53;2073445;28;20424;-65
2022/08/13 03:36:15;;;;;;;7.80;4.80;;;;;;;21.61;100.00;101009.13;2073375;28;20216;-65
2022/08/13 03:37:15;;;;;;;10.07;5.30;;;;;;;21.70;100.00;101002.56;2063165;28;20437;-65
2022/08/13 03:38:15;;;;;;;7.83;5.13;;;;;;;21.68;100.00;100994.59;2057880;28;20167;-65
2022/08/13 03:39:16;;;;;;;6.87;5.37;;;;;;;21.41;100.00;100943.56;2073924;28;20227;-65
2022/08/13 03:40:17;;;;;;;7.07;5.60;;;;;;;21.56;100.00;100959.09;2074026;28;20548;-65
2022/08/13 03:41:17;;;;;;;12.03;5.33;;;;;;;21.45;100.00;100942.03;2058041;28;20213;-65
2022/08/13 03:42:18;;;;;;;5.57;4.83;;;;;;;21.46;100.00;100937.19;2057230;28;20250;-65
2022/08/13 03:43:20;;;;;;;7.23;5.40;;;;;;;21.44;100.00;100936.94;2061096;28;20197;-65
2022/08/13 03:44:20;;;;;;;7.07;5.03;;;;;;;21.63;100.00;100952.97;2062257;28;20679;-65
2022/08/13 03:45:24;;;;;;;7.00;4.83;;;;;;;21.95;100.00;100998.91;2067419;28;20799;-66
2022/08/13 03:46:26;;;;;;;8.40;4.97;;;;;;;21.97;100.00;100994.31;2072012;28;20244;-65
2022/08/13 03:47:26;;;;;;;7.60;5.43;;;;;;;21.68;100.00;100949.47;2065645;28;20420;-65
2022/08/13 03:48:27;;;;;;;6.53;5.10;;;;;;;22.03;100.00;101000.78;2065945;28;20516;-65
2022/08/13 03:49:27;;;;;;;7.77;5.63;;;;;;;22.02;100.00;100995.63;2065825;28;20233;-65
2022/08/13 03:50:28;;;;;;;8.30;5.80;;;;;;;22.06;100.00;101001.81;2065812;28;20214;-65
2022/08/13 03:51:29;;;;;;;7.37;5.30;;;;;;;22.06;100.00;100999.00;2065532;28;20186;-65
2022/08/13 03:52:30;;;;;;;6.80;5.20;;;;;;;22.05;100.00;101003.09;2072072;28;20284;-65
2022/08/13 03:53:31;;;;;;;10.17;6.60;;;;;;;21.61;100.00;100938.63;2073894;28;20256;-65
2022/08/13 03:54:31;;;;;;;12.17;6.80;;;;;;;22.00;100.00;100987.66;2073777;28;20858;-66
2022/08/13 03:55:33;;;;;;;10.67;7.63;;;;;;;22.06;100.00;101011.03;2072238;28;20205;-65
2022/08/13 03:56:34;;;;;;;9.73;7.40;;;;;;;22.07;100.00;101004.16;2065112;28;20170;-65
2022/08/13 03:57:40;;;;;;;10.70;7.43;;;;;;;22.06;100.00;101005.41;2065902;28;20185;-65
2022/08/13 03:58:41;;;;;;;9.70;6.70;;;;;;;21.43;100.00;100899.50;2065731;28;20181;-65
2022/08/13 03:59:41;;;;;;;11.23;7.10;;;;;;;22.09;100.00;101004.41;2065792;28;20480;-65
2022/08/13 04:00:48;;;;;;;9.23;6.70;;;;;;;21.95;100.00;100977.09;2065580;28;20201;-65
2022/08/13 04:01:53;;;;;;;7.37;6.53;;;;;;;22.12;100.00;101002.63;2065536;28;20194;-65
2022/08/13 04:02:56;;;;;;;7.40;5.97;;;;;;;22.11;100.00;100992.63;2070283;28;20843;-65
2022/08/13 04:03:56;;;;;;;8.97;6.07;;;;;;;21.64;100.00;100929.13;2071674;28;20467;-65
2022/08/13 04:04:56;;;;;;;7.73;6.47;;;;;;;22.10;100.00;100997.47;2073208;28;20441;-65
2022/08/13 04:06:06;;;;;;;9.00;6.20;;;;;;;22.07;100.00;100998.50;2072926;28;20531;-65
2022/08/13 04:07:09;;;;;;;9.83;6.00;;;;;;;22.10;100.00;101003.13;2071757;28;20193;-65
2022/08/13 04:08:10;;;;;;;7.97;6.23;;;;;;;21.82;100.00;100975.97;2065552;28;20417;-65
2022/08/13 04:09:10;;;;;;;10.77;6.03;;;;;;;22.01;100.00;100994.09;2072993;28;20185;-64
2022/08/13 04:10:12;;;;;;;11.83;6.40;;;;;;;22.13;100.00;101007.78;2065212;28;20427;-65
2022/08/13 04:11:15;;;;;;;9.73;6.13;;;;;;;22.16;100.00;101006.00;2064007;28;20261;-65
2022/08/13 04:12:16;;;;;;;9.60;5.73;;;;;;;22.22;100.00;101004.72;2071991;28;20186;-65
2022/08/13 04:13:16;;;;;;;8.20;5.73;;;;;;;22.25;100.00;101006.56;2067858;28;20441;-65
2022/08/13 04:14:17;;;;;;;8.40;6.13;;;;;;;22.11;100.00;100979.25;2069899;28;20190;-65
2022/08/13 04:15:17;;;;;;;8.83;5.93;;;;;;;22.29;100.00;100998.63;2073049;28;20236;-65
2022/08/13 04:16:21;;;;;;;10.73;5.77;;;;;;;22.31;100.00;100993.25;2070968;28;20189;-65
2022/08/13 04:17:21;;;;;;;8.70;5.70;;;;;;;22.30;100.00;101007.88;2065444;28;20675;-65
2022/08/13 04:18:22;;;;;;;8.67;6.07;;;;;;;22.32;100.00;101003.25;2065556;28;20698;-65
2022/08/13 04:19:23;;;;;;;7.13;6.20;;;;;;;21.76;100.00;100913.09;2065750;28;20734;-66
2022/08/13 04:20:23;;;;;;;7.70;6.30;;;;;;;22.09;100.00;100966.94;2072698;28;20194;-65
2022/08/13 04:21:28;;;;;;;9.50;6.30;;;;;;;22.38;100.00;101006.13;2073494;28;20196;-65
2022/08/13 04:22:28;;;;;;;8.03;5.83;;;;;;;22.41;100.00;101010.78;2067879;28;20244;-65
2022/08/13 04:23:29;;;;;;;7.23;5.90;;;;;;;22.25;100.00;100995.28;2060609;28;20460;-66
2022/08/13 04:24:30;;;;;;;8.87;5.53;;;;;;;22.42;100.00;101006.69;2064936;28;20194;-65
2022/08/13 04:25:31;;;;;;;7.53;6.13;;;;;;;21.93;100.00;100934.50;2064907;28;20617;-65
2022/08/13 04:26:33;;;;;;;10.93;5.90;;;;;;;22.46;100.00;101012.91;2066363;28;20178;-64
2022/08/13 04:27:34;;;;;;;13.97;5.80;;;;;;;22.32;100.00;100988.38;2073362;28;20614;-65
2022/08/13 04:28:38;;;;;;;8.97;6.40;;;;;;;22.39;100.00;101008.47;2064868;28;20252;-65
2022/08/13 04:29:39;;;;;;;11.00;7.00;;;;;;;21.80;100.00;100922.88;2057209;28;20233;-65
2022/08/13 04:30:41;;;;;;;12.33;7.07;;;;;;;22.26;100.00;100988.34;2065393;28;20190;-65
2022/08/13 04:31:44;;;;;;;13.00;6.77;;;;;;;22.48;100.00;101016.75;2065566;28;20264;-65
2022/08/13 04:32:48;;;;;;;9.37;6.80;;;;;;;22.48;100.00;101013.16;2065393;28;20434;-64
2022/08/13 04:33:50;;;;;;;10.87;7.40;;;;;;;22.54;100.00;101020.38;2065192;28;20735;-65
2022/08/13 04:34:50;;;;;;;9.63;7.10;;;;;;;22.50;100.00;101017.03;2061083;28;20442;-65
2022/08/13 04:35:51;;;;;;;9.97;7.17;;;;;;;22.59;100.00;101018.84;2058571;28;20497;-65
2022/08/13 04:36:52;;;;;;;8.47;6.57;;;;;;;22.56;100.00;101019.88;2071980;28;20595;-65
2022/08/13 04:37:56;;;;;;;10.67;6.73;;;;;;;22.61;100.00;101019.91;2056613;28;20234;-65
2022/08/13 04:38:57;;;;;;;8.80;6.10;;;;;;;22.28;100.00;100957.56;2065069;28;20564;-65
2022/08/13 04:39:57;;;;;;;10.57;6.20;;;;;;;22.71;100.00;101014.78;2073115;28;20512;-65
2022/08/13 04:40:58;;;;;;;10.23;6.37;;;;;;;22.50;100.00;100982.34;2066627;28;20193;-65
2022/08/13 04:41:59;;;;;;;11.37;6.00;;;;;;;22.71;100.00;101011.97;2065373;28;20182;-65
2022/08/13 04:43:00;;;;;;;8.17;6.33;;;;;;;22.37;100.00;100957.34;2065265;28;20189;-65
2022/08/13 04:44:00;;;;;;;7.47;5.47;;;;;;;22.82;100.00;101014.88;2064749;28;20469;-65
2022/08/13 04:45:02;;;;;;;10.10;6.30;;;;;;;22.86;100.00;101015.38;2064778;28;20734;-65
2022/08/13 04:46:02;;;;;;;10.27;5.70;;;;;;;22.73;100.00;100998.88;2066507;28;20236;-65
2022/08/13 04:47:04;;;;;;;8.03;5.50;;;;;;;22.89;100.00;101011.56;2064507;28;20425;-65
2022/08/13 04:48:12;;;;;;;11.90;6.23;;;;;;;22.95;100.00;101013.13;2065086;28;20186;-65
2022/08/13 04:49:13;;;;;;;7.77;5.37;;;;;;;22.94;100.00;101005.94;2065553;28;20412;-65
2022/08/13 04:50:14;;;;;;;6.43;5.70;;;;;;;22.99;100.00;101010.06;2065723;28;20433;-65
2022/08/13 04:51:15;;;;;;;7.37;6.37;;;;;;;22.86;100.00;101002.03;2065245;28;20190;-65
2022/08/13 04:52:15;;;;;;;8.23;5.73;;;;;;;23.00;100.00;101012.38;2069770;28;20459;-65
2022/08/13 04:53:34;;;;;;;7.00;5.87;;;;;;;23.02;100.00;101015.44;2073271;28;20721;-65
2022/08/13 04:54:35;;;;;;;6.13;5.30;;;;;;;22.67;100.00;100964.19;2072756;28;20553;-66
2022/08/13 04:55:37;;;;;;;9.27;5.70;;;;;;;23.05;100.00;101016.50;2072657;28;20479;-65
2022/08/13 04:56:37;;;;;;;9.10;6.07;;;;;;;23.09;100.00;101014.19;2072848;28;20662;-65